Mr Duck — WDH3774 — position and weather

sailwx.info

Track history (hours):
 
Tides and Currents Weather Stations Pressure Air Temp Water Temp Dewpoint Dewpoint Depression Visibility Wind Speed Wind Dir Waves Ship Positions

Mr Duck

Owner: Crown Oilfield Construction & Marine LLC, Breaux Bridge, LA. More information available from US FCC via Universal Licensing System and Coast Guard Vessel Documentation Center.

Last reported at 2017-Nov-01 18:13 UTC. Time now 2017-Nov-17 23:20 UTC.
Position N 29°32' W 090°50'.
Warning: this ship's position is 16 days out of date.

Length 16 m; draft 2 m.

Type: Tug. MMSI: 367610770.

Date/timePositionNaut miles runAvg speedWind from/ knotsBaromVisibWave heightAir tempDewpointWater temp
2017-Nov-01 18:13N 29°32' W 090°50'213 4.9
2017-Oct-30 22:29N 30°24' W 086°51'3 7.2
2017-Oct-30 22:00N 30°24' W 086°47'7 7.0
2017-Oct-30 21:01N 30°24' W 086°39'2 6.9
2017-Oct-30 20:42N 30°24' W 086°37'19 0.7
2017-Oct-29 18:18N 30°27' W 086°16'2 7.0
2017-Oct-29 18:01N 30°27' W 086°18'4 7.2
2017-Oct-29 17:31N 30°26' W 086°22'3 6.9
2017-Oct-29 17:00N 30°26' W 086°26'3 6.8
2017-Oct-29 16:30N 30°25' W 086°30'4 6.7
2017-Oct-29 15:59N 30°24' W 086°34'1 1.1
2017-Oct-29 14:41N 30°24' W 086°35'0 0.0
2017-Oct-29 14:24N 30°24' W 086°35'0 0.0
2017-Oct-29 13:50N 30°24' W 086°35'0 0.0
2017-Oct-29 13:16N 30°24' W 086°35'0 0.0
2017-Oct-29 12:46N 30°24' W 086°35'0 0.0
2017-Oct-29 12:30N 30°24' W 086°35'0 0.0
2017-Oct-29 12:01N 30°24' W 086°35'0 0.0
2017-Oct-29 11:26N 30°24' W 086°35'0 0.0
2017-Oct-29 10:18N 30°24' W 086°35'0 0.0
2017-Oct-29 07:26N 30°24' W 086°35'0 0.0
2017-Oct-29 06:38N 30°24' W 086°35'0 0.0
2017-Oct-29 06:28N 30°24' W 086°35'0 0.0
2017-Oct-29 05:45N 30°24' W 086°35'0 0.0
2017-Oct-29 05:23N 30°24' W 086°35'0 0.0
2017-Oct-29 04:03N 30°24' W 086°35'0 0.0
2017-Oct-29 04:00N 30°24' W 086°35'14 1.5
2017-Oct-28 19:01N 30°24' W 086°52'0 0.0
2017-Oct-28 18:31N 30°24' W 086°52'1 1.1
2017-Oct-28 17:58N 30°24' W 086°52'  
Track history (hours):
 
Tides and Currents Weather Stations Pressure Air Temp Water Temp Dewpoint Dewpoint Depression Visibility Wind Speed Wind Dir Waves Ship Positions

Mr Duck

Owner: Crown Oilfield Construction & Marine LLC, Breaux Bridge, LA. More information available from US FCC via Universal Licensing System and Coast Guard Vessel Documentation Center.

Last reported at 2017-Nov-01 18:13 UTC. Time now 2017-Nov-17 23:20 UTC.
Position N 29°32' W 090°50'.
Warning: this ship's position is 16 days out of date.

Length 16 m; draft 2 m.

Type: Tug. MMSI: 367610770.

Date/timePositionNaut miles runAvg speedWind from/ knotsBaromVisibWave heightAir tempDewpointWater temp
2017-Nov-01 18:13N 29°32' W 090°50'213 4.9
2017-Oct-30 22:29N 30°24' W 086°51'3 7.2
2017-Oct-30 22:00N 30°24' W 086°47'7 7.0
2017-Oct-30 21:01N 30°24' W 086°39'2 6.9
2017-Oct-30 20:42N 30°24' W 086°37'19 0.7
2017-Oct-29 18:18N 30°27' W 086°16'2 7.0
2017-Oct-29 18:01N 30°27' W 086°18'4 7.2
2017-Oct-29 17:31N 30°26' W 086°22'3 6.9
2017-Oct-29 17:00N 30°26' W 086°26'3 6.8
2017-Oct-29 16:30N 30°25' W 086°30'4 6.7
2017-Oct-29 15:59N 30°24' W 086°34'1 1.1
2017-Oct-29 14:41N 30°24' W 086°35'0 0.0
2017-Oct-29 14:24N 30°24' W 086°35'0 0.0
2017-Oct-29 13:50N 30°24' W 086°35'0 0.0
2017-Oct-29 13:16N 30°24' W 086°35'0 0.0
2017-Oct-29 12:46N 30°24' W 086°35'0 0.0
2017-Oct-29 12:30N 30°24' W 086°35'0 0.0
2017-Oct-29 12:01N 30°24' W 086°35'0 0.0
2017-Oct-29 11:26N 30°24' W 086°35'0 0.0
2017-Oct-29 10:18N 30°24' W 086°35'0 0.0
2017-Oct-29 07:26N 30°24' W 086°35'0 0.0
2017-Oct-29 06:38N 30°24' W 086°35'0 0.0
2017-Oct-29 06:28N 30°24' W 086°35'0 0.0
2017-Oct-29 05:45N 30°24' W 086°35'0 0.0
2017-Oct-29 05:23N 30°24' W 086°35'0 0.0
2017-Oct-29 04:03N 30°24' W 086°35'0 0.0
2017-Oct-29 04:00N 30°24' W 086°35'14 1.5
2017-Oct-28 19:01N 30°24' W 086°52'0 0.0
2017-Oct-28 18:31N 30°24' W 086°52'1 1.1
2017-Oct-28 17:58N 30°24' W 086°52'  

Dump ship's entire track history